sensor_id;sensor_type;location;lat;lon;timestamp;pressure;altitude;pressure_sealevel;temperature;humidity
66560;BME280;53413;49.878;8.142;2023-05-18T00:02:02;62379.06;;;-147.87;100.00
66560;BME280;53413;49.878;8.142;2023-05-18T00:04:32;62379.06;;;-147.87;100.00
66560;BME280;53413;49.878;8.142;2023-05-18T00:06:58;62379.06;;;-147.87;100.00
66560;BME280;53413;49.878;8.142;2023-05-18T00:09:28;62379.06;;;-147.87;100.00
66560;BME280;53413;49.878;8.142;2023-05-18T00:11:55;62379.06;;;-147.87;100.00
66560;BME280;53413;49.878;8.142;2023-05-18T00:14:21;62379.06;;;-147.87;100.00
66560;BME280;53413;49.878;8.142;2023-05-18T00:16:47;62379.06;;;-147.87;100.00
66560;BME280;53413;49.878;8.142;2023-05-18T00:19:13;62379.06;;;-147.87;100.00
66560;BME280;53413;49.878;8.142;2023-05-18T00:21:40;62379.06;;;-147.87;100.00
66560;BME280;53413;49.878;8.142;2023-05-18T00:24:06;62379.06;;;-147.87;100.00
66560;BME280;53413;49.878;8.142;2023-05-18T00:26:32;62379.06;;;-147.87;100.00
66560;BME280;53413;49.878;8.142;2023-05-18T00:28:57;62379.06;;;-147.87;100.00
66560;BME280;53413;49.878;8.142;2023-05-18T00:31:22;62379.06;;;-147.87;100.00
66560;BME280;53413;49.878;8.142;2023-05-18T00:33:48;62379.06;;;-147.87;100.00
66560;BME280;53413;49.878;8.142;2023-05-18T00:36:13;62379.06;;;-147.87;100.00
66560;BME280;53413;49.878;8.142;2023-05-18T00:38:38;62379.06;;;-147.87;100.00
66560;BME280;53413;49.878;8.142;2023-05-18T00:41:04;62379.06;;;-147.87;100.00
66560;BME280;53413;49.878;8.142;2023-05-18T00:43:29;62379.06;;;-147.87;100.00
66560;BME280;53413;49.878;8.142;2023-05-18T00:45:55;62379.06;;;-147.87;100.00
66560;BME280;53413;49.878;8.142;2023-05-18T00:48:20;62379.06;;;-147.87;100.00
66560;BME280;53413;49.878;8.142;2023-05-18T00:50:45;62379.06;;;-147.87;100.00
66560;BME280;53413;49.878;8.142;2023-05-18T00:53:11;62379.06;;;-147.87;100.00
66560;BME280;53413;49.878;8.142;2023-05-18T00:55:36;62379.06;;;-147.87;100.00
66560;BME280;53413;49.878;8.142;2023-05-18T00:58:02;62379.06;;;-147.87;100.00
66560;BME280;53413;49.878;8.142;2023-05-18T01:00:29;62379.06;;;-147.87;100.00
66560;BME280;53413;49.878;8.142;2023-05-18T01:02:55;62379.06;;;-147.87;100.00
66560;BME280;53413;49.878;8.142;2023-05-18T01:05:21;62379.06;;;-147.87;100.00
66560;BME280;53413;49.878;8.142;2023-05-18T01:07:47;62379.06;;;-147.87;100.00
66560;BME280;53413;49.878;8.142;2023-05-18T01:10:14;62379.06;;;-147.87;100.00
66560;BME280;53413;49.878;8.142;2023-05-18T01:12:52;62379.06;;;-147.87;100.00
66560;BME280;53413;49.878;8.142;2023-05-18T01:15:21;62379.06;;;-147.87;100.00
66560;BME280;53413;49.878;8.142;2023-05-18T01:20:39;62379.06;;;-147.87;100.00
66560;BME280;53413;49.878;8.142;2023-05-18T01:28:21;62379.06;;;-147.87;100.00
66560;BME280;53413;49.878;8.142;2023-05-18T01:30:51;62379.06;;;-147.87;100.00
66560;BME280;53413;49.878;8.142;2023-05-18T01:33:16;62379.06;;;-147.87;100.00
66560;BME280;53413;49.878;8.142;2023-05-18T01:35:41;62379.06;;;-147.87;100.00
66560;BME280;53413;49.878;8.142;2023-05-18T01:38:14;62379.06;;;-147.87;100.00
66560;BME280;53413;49.878;8.142;2023-05-18T01:40:47;62379.06;;;-147.87;100.00
66560;BME280;53413;49.878;8.142;2023-05-18T01:43:17;62379.06;;;-147.87;100.00
66560;BME280;53413;49.878;8.142;2023-05-18T01:45:46;62379.06;;;-147.87;100.00
66560;BME280;53413;49.878;8.142;2023-05-18T01:48:17;62379.06;;;-147.87;100.00
66560;BME280;53413;49.878;8.142;2023-05-18T01:50:47;62379.06;;;-147.87;100.00
66560;BME280;53413;49.878;8.142;2023-05-18T01:53:32;62379.06;;;-147.87;100.00
66560;BME280;53413;49.878;8.142;2023-05-18T01:56:06;62379.06;;;-147.87;100.00
66560;BME280;53413;49.878;8.142;2023-05-18T01:58:33;62379.06;;;-147.87;100.00
66560;BME280;53413;49.878;8.142;2023-05-18T02:00:59;62379.06;;;-147.87;100.00
66560;BME280;53413;49.878;8.142;2023-05-18T02:03:24;62379.06;;;-147.87;100.00
66560;BME280;53413;49.878;8.142;2023-05-18T02:05:50;62379.06;;;-147.87;100.00
66560;BME280;53413;49.878;8.142;2023-05-18T02:08:15;62379.06;;;-147.87;100.00
66560;BME280;53413;49.878;8.142;2023-05-18T02:10:41;62379.06;;;-147.87;100.00
66560;BME280;53413;49.878;8.142;2023-05-18T02:13:06;62379.06;;;-147.87;100.00
66560;BME280;53413;49.878;8.142;2023-05-18T02:15:32;62379.06;;;-147.87;100.00
66560;BME280;53413;49.878;8.142;2023-05-18T02:17:57;62379.06;;;-147.87;100.00
66560;BME280;53413;49.878;8.142;2023-05-18T02:20:22;62379.06;;;-147.87;100.00
66560;BME280;53413;49.878;8.142;2023-05-18T02:22:48;62379.06;;;-147.87;100.00
66560;BME280;53413;49.878;8.142;2023-05-18T02:25:13;100820.09;;;8.79;84.18
66560;BME280;53413;49.878;8.142;2023-05-18T02:27:38;100818.53;;;5.08;100.00
66560;BME280;53413;49.878;8.142;2023-05-18T02:30:05;100817.69;;;5.13;100.00
66560;BME280;53413;49.878;8.142;2023-05-18T02:32:33;100815.06;;;5.17;100.00
66560;BME280;53413;49.878;8.142;2023-05-18T02:35:04;100806.38;;;5.20;100.00
66560;BME280;53413;49.878;8.142;2023-05-18T02:37:29;100795.13;;;5.19;100.00
66560;BME280;53413;49.878;8.142;2023-05-18T02:39:59;100801.16;;;5.24;100.00
66560;BME280;53413;49.878;8.142;2023-05-18T02:42:24;100800.34;;;5.22;100.00
66560;BME280;53413;49.878;8.142;2023-05-18T02:44:50;100802.94;;;5.16;100.00
66560;BME280;53413;49.878;8.142;2023-05-18T02:47:15;100800.34;;;5.13;100.00
66560;BME280;53413;49.878;8.142;2023-05-18T02:49:41;100798.63;;;5.14;100.00
66560;BME280;53413;49.878;8.142;2023-05-18T02:52:06;100806.38;;;5.20;100.00
66560;BME280;53413;49.878;8.142;2023-05-18T02:54:31;100809.84;;;5.19;100.00
66560;BME280;53413;49.878;8.142;2023-05-18T02:56:57;100809.00;;;5.21;100.00
66560;BME280;53413;49.878;8.142;2023-05-18T02:59:22;100809.00;;;5.18;100.00
66560;BME280;53413;49.878;8.142;2023-05-18T03:01:48;100810.72;;;5.21;100.00
66560;BME280;53413;49.878;8.142;2023-05-18T03:04:13;100812.47;;;5.17;100.00
66560;BME280;53413;49.878;8.142;2023-05-18T03:06:41;100820.25;;;5.17;100.00
66560;BME280;53413;49.878;8.142;2023-05-18T03:09:06;100818.50;;;5.21;100.00
66560;BME280;53413;49.878;8.142;2023-05-18T03:11:31;100820.25;;;5.22;100.00
66560;BME280;53413;49.878;8.142;2023-05-18T03:13:57;100820.25;;;5.19;100.00
66560;BME280;53413;49.878;8.142;2023-05-18T03:16:22;100811.59;;;5.20;100.00
66560;BME280;53413;49.878;8.142;2023-05-18T03:18:53;100814.19;;;5.23;100.00
66560;BME280;53413;49.878;8.142;2023-05-18T03:21:18;100822.84;;;5.28;100.00
66560;BME280;53413;49.878;8.142;2023-05-18T03:23:44;100813.28;;;5.26;100.00
66560;BME280;53413;49.878;8.142;2023-05-18T03:26:09;100818.50;;;5.26;100.00
66560;BME280;53413;49.878;8.142;2023-05-18T03:28:39;100819.41;;;5.18;100.00
66560;BME280;53413;49.878;8.142;2023-05-18T03:31:04;100814.19;;;5.12;100.00
66560;BME280;53413;49.878;8.142;2023-05-18T03:33:30;100815.94;;;5.13;100.00
66560;BME280;53413;49.878;8.142;2023-05-18T03:35:55;100821.13;;;5.22;100.00
66560;BME280;53413;49.878;8.142;2023-05-18T03:38:21;100826.28;;;5.29;100.00
66560;BME280;53413;49.878;8.142;2023-05-18T03:40:46;100812.44;;;5.27;100.00
66560;BME280;53413;49.878;8.142;2023-05-18T03:43:11;100821.97;;;5.29;100.00
66560;BME280;53413;49.878;8.142;2023-05-18T03:45:37;100829.75;;;5.26;100.00
66560;BME280;53413;49.878;8.142;2023-05-18T03:48:02;100824.56;;;5.28;100.00
66560;BME280;53413;49.878;8.142;2023-05-18T03:50:28;100821.09;;;5.26;100.00
66560;BME280;53413;49.878;8.142;2023-05-18T03:52:53;100822.81;;;5.23;100.00
66560;BME280;53413;49.878;8.142;2023-05-18T03:55:20;100821.94;;;5.28;100.00
66560;BME280;53413;49.878;8.142;2023-05-18T03:57:46;100822.81;;;5.27;100.00
66560;BME280;53413;49.878;8.142;2023-05-18T04:00:12;100817.63;;;5.27;100.00
66560;BME280;53413;49.878;8.142;2023-05-18T04:02:38;100818.50;;;5.24;100.00
66560;BME280;53413;49.878;8.142;2023-05-18T04:05:04;100828.06;;;5.20;100.00
66560;BME280;53413;49.878;8.142;2023-05-18T04:07:30;100838.44;;;5.20;100.00
66560;BME280;53413;49.878;8.142;2023-05-18T04:09:55;100827.19;;;5.21;100.00
66560;BME280;53413;49.878;8.142;2023-05-18T04:12:21;100828.03;;;5.25;100.00
66560;BME280;53413;49.878;8.142;2023-05-18T04:14:47;100833.22;;;5.28;100.00
66560;BME280;53413;49.878;8.142;2023-05-18T04:17:15;100834.06;;;5.35;100.00
66560;BME280;53413;49.878;8.142;2023-05-18T04:19:41;100838.38;;;5.42;100.00
66560;BME280;53413;49.878;8.142;2023-05-18T04:22:06;100839.22;;;5.49;100.00
66560;BME280;53413;49.878;8.142;2023-05-18T04:24:32;100842.66;;;5.59;100.00
66560;BME280;53413;49.878;8.142;2023-05-18T04:26:59;100834.81;;;5.68;100.00
66560;BME280;53413;49.878;8.142;2023-05-18T04:29:28;100837.34;;;5.79;100.00
66560;BME280;53413;49.878;8.142;2023-05-18T04:31:54;100837.31;;;5.88;100.00
66560;BME280;53413;49.878;8.142;2023-05-18T04:34:25;100843.31;;;5.98;100.00
66560;BME280;53413;49.878;8.142;2023-05-18T04:36:51;100849.38;;;6.05;100.00
66560;BME280;53413;49.878;8.142;2023-05-18T04:39:20;100842.41;;;6.13;100.00
66560;BME280;53413;49.878;8.142;2023-05-18T04:41:51;100843.19;;;6.23;100.00
66560;BME280;53413;49.878;8.142;2023-05-18T04:44:26;100851.78;;;6.36;100.00
66560;BME280;53413;49.878;8.142;2023-05-18T04:46:53;100850.81;;;6.47;100.00
66560;BME280;53413;49.878;8.142;2023-05-18T04:49:19;100844.66;;;6.59;100.00
66560;BME280;53413;49.878;8.142;2023-05-18T04:51:48;100845.41;;;6.72;100.00
66560;BME280;53413;49.878;8.142;2023-05-18T04:54:14;100839.19;;;6.86;100.00
66560;BME280;53413;49.878;8.142;2023-05-18T04:56:40;100840.81;;;6.99;100.00
66560;BME280;53413;49.878;8.142;2023-05-18T04:59:07;100845.88;;;7.13;100.00
66560;BME280;53413;49.878;8.142;2023-05-18T05:01:33;100847.50;;;7.25;100.00
66560;BME280;53413;49.878;8.142;2023-05-18T05:03:58;100837.78;;;7.39;100.00
66560;BME280;53413;49.878;8.142;2023-05-18T05:06:24;100841.09;;;7.52;100.00
66560;BME280;53413;49.878;8.142;2023-05-18T05:08:49;100843.53;;;7.66;100.00
66560;BME280;53413;49.878;8.142;2023-05-18T05:11:15;100844.19;;;7.84;100.00
66560;BME280;53413;49.878;8.142;2023-05-18T05:13:40;100848.34;;;7.97;100.00
66560;BME280;53413;49.878;8.142;2023-05-18T05:16:05;100849.91;;;8.11;100.00
66560;BME280;53413;49.878;8.142;2023-05-18T05:18:31;100847.94;;;8.25;100.00
66560;BME280;53413;49.878;8.142;2023-05-18T05:20:56;100852.06;;;8.40;100.00
66560;BME280;53413;49.878;8.142;2023-05-18T05:23:23;100857.91;;;8.59;100.00
66560;BME280;53413;49.878;8.142;2023-05-18T05:25:48;100857.56;;;8.78;100.00
66560;BME280;53413;49.878;8.142;2023-05-18T05:28:14;100853.06;;;8.88;100.00
66560;BME280;53413;49.878;8.142;2023-05-18T05:30:39;100857.94;;;9.06;100.00
66560;BME280;53413;49.878;8.142;2023-05-18T05:33:05;100853.22;;;9.26;100.00
66560;BME280;53413;49.878;8.142;2023-05-18T05:35:30;100854.72;;;9.39;100.00
66560;BME280;53413;49.878;8.142;2023-05-18T05:37:55;100860.53;;;9.53;97.97
66560;BME280;53413;49.878;8.142;2023-05-18T05:40:21;100853.19;;;9.71;96.68
66560;BME280;53413;49.878;8.142;2023-05-18T05:42:46;100853.81;;;9.84;95.76
66560;BME280;53413;49.878;8.142;2023-05-18T05:45:12;100851.66;;;10.03;92.48
66560;BME280;53413;49.878;8.142;2023-05-18T05:47:37;100855.75;;;11.53;88.49
66560;BME280;53413;49.878;8.142;2023-05-18T05:50:03;100848.66;;;16.55;69.33
66560;BME280;53413;49.878;8.142;2023-05-18T05:52:29;100840.63;;;20.69;52.40
66560;BME280;53413;49.878;8.142;2023-05-18T05:54:55;62379.06;;;-147.87;100.00
66560;BME280;53413;49.878;8.142;2023-05-18T05:57:20;62379.06;;;-147.87;100.00
66560;BME280;53413;49.878;8.142;2023-05-18T05:59:45;100842.75;;;26.23;35.43
66560;BME280;53413;49.878;8.142;2023-05-18T06:02:11;100842.13;;;26.68;34.00
66560;BME280;53413;49.878;8.142;2023-05-18T06:04:36;100840.63;;;27.23;33.16
66560;BME280;53413;49.878;8.142;2023-05-18T06:07:02;62379.06;;;-147.87;100.00
66560;BME280;53413;49.878;8.142;2023-05-18T06:09:27;100850.06;;;28.83;30.49
66560;BME280;53413;49.878;8.142;2023-05-18T06:11:53;100846.47;;;28.75;29.73
66560;BME280;53413;49.878;8.142;2023-05-18T06:14:18;100850.31;;;30.19;29.18
66560;BME280;53413;49.878;8.142;2023-05-18T06:16:44;100844.94;;;30.77;27.65
66560;BME280;53413;49.878;8.142;2023-05-18T06:19:09;100842.28;;;31.33;27.56
66560;BME280;53413;49.878;8.142;2023-05-18T06:21:35;100844.84;;;31.10;26.57
66560;BME280;53413;49.878;8.142;2023-05-18T06:24:00;100853.72;;;30.79;26.52
66560;BME280;53413;49.878;8.142;2023-05-18T06:26:28;100851.06;;;29.78;27.37
66560;BME280;53413;49.878;8.142;2023-05-18T06:28:53;100844.44;;;29.64;27.62
66560;BME280;53413;49.878;8.142;2023-05-18T06:31:19;100855.59;;;29.69;27.32
66560;BME280;53413;49.878;8.142;2023-05-18T06:33:45;100846.53;;;29.87;27.58
66560;BME280;53413;49.878;8.142;2023-05-18T06:36:10;100848.59;;;31.00;26.93
66560;BME280;53413;49.878;8.142;2023-05-18T06:38:35;100852.19;;;32.44;25.34
66560;BME280;53413;49.878;8.142;2023-05-18T06:41:01;100850.44;;;32.28;25.00
66560;BME280;53413;49.878;8.142;2023-05-18T06:43:26;100850.53;;;32.58;25.23
66560;BME280;53413;49.878;8.142;2023-05-18T06:45:53;100844.09;;;32.74;24.22
66560;BME280;53413;49.878;8.142;2023-05-18T06:48:18;100849.50;;;32.82;24.63
66560;BME280;53413;49.878;8.142;2023-05-18T06:50:44;100847.59;;;33.72;24.12
66560;BME280;53413;49.878;8.142;2023-05-18T06:53:10;100845.19;;;34.71;22.84
66560;BME280;53413;49.878;8.142;2023-05-18T06:55:35;100855.75;;;33.72;23.55
66560;BME280;53413;49.878;8.142;2023-05-18T06:58:01;100861.50;;;34.21;23.28
66560;BME280;53413;49.878;8.142;2023-05-18T07:00:27;100869.13;;;34.11;22.15
66560;BME280;53413;49.878;8.142;2023-05-18T07:02:52;100857.66;;;34.87;21.91
66560;BME280;53413;49.878;8.142;2023-05-18T07:05:17;100861.69;;;35.62;21.28
66560;BME280;53413;49.878;8.142;2023-05-18T07:07:43;100868.56;;;35.57;21.24
66560;BME280;53413;49.878;8.142;2023-05-18T07:10:08;100855.06;;;35.01;21.34
66560;BME280;53413;49.878;8.142;2023-05-18T07:12:34;100853.34;;;35.83;21.11
66560;BME280;53413;49.878;8.142;2023-05-18T07:14:59;100856.84;;;36.66;20.53
66560;BME280;53413;49.878;8.142;2023-05-18T07:17:24;100853.44;;;36.10;20.45
66560;BME280;53413;49.878;8.142;2023-05-18T07:19:50;100851.59;;;35.20;21.19
66560;BME280;53413;49.878;8.142;2023-05-18T07:22:15;100845.34;;;35.26;21.22
66560;BME280;53413;49.878;8.142;2023-05-18T07:24:40;100845.97;;;35.70;20.69
66560;BME280;53413;49.878;8.142;2023-05-18T07:27:07;100848.09;;;35.75;20.72
66560;BME280;53413;49.878;8.142;2023-05-18T07:29:32;100847.38;;;35.11;21.17
66560;BME280;53413;49.878;8.142;2023-05-18T07:31:58;100851.22;;;35.72;21.13
66560;BME280;53413;49.878;8.142;2023-05-18T07:34:23;100851.03;;;35.80;21.08
66560;BME280;53413;49.878;8.142;2023-05-18T07:36:51;100853.88;;;36.27;20.47
66560;BME280;53413;49.878;8.142;2023-05-18T07:39:17;100853.06;;;36.54;20.65
66560;BME280;53413;49.878;8.142;2023-05-18T07:41:46;100860.59;;;36.65;20.01
66560;BME280;53413;49.878;8.142;2023-05-18T07:44:12;100853.47;;;37.56;19.29
66560;BME280;53413;49.878;8.142;2023-05-18T07:46:38;100842.78;;;37.87;19.37
66560;BME280;53413;49.878;8.142;2023-05-18T07:49:03;100842.47;;;38.09;19.06
66560;BME280;53413;49.878;8.142;2023-05-18T07:51:29;100837.38;;;37.41;19.18
66560;BME280;53413;49.878;8.142;2023-05-18T07:53:55;100840.94;;;37.81;19.64
66560;BME280;53413;49.878;8.142;2023-05-18T07:56:21;100841.63;;;38.40;19.05
66560;BME280;53413;49.878;8.142;2023-05-18T07:58:48;100839.94;;;38.64;19.06
66560;BME280;53413;49.878;8.142;2023-05-18T08:01:13;100832.47;;;38.53;19.03
66560;BME280;53413;49.878;8.142;2023-05-18T08:03:39;100835.44;;;38.70;18.95
66560;BME280;53413;49.878;8.142;2023-05-18T08:06:04;100830.84;;;39.08;18.32
66560;BME280;53413;49.878;8.142;2023-05-18T08:08:29;100831.06;;;38.12;19.21
66560;BME280;53413;49.878;8.142;2023-05-18T08:10:55;100829.66;;;38.34;19.08
66560;BME280;53413;49.878;8.142;2023-05-18T08:13:21;100832.25;;;37.52;19.25
66560;BME280;53413;49.878;8.142;2023-05-18T08:15:46;100830.28;;;37.66;18.89
66560;BME280;53413;49.878;8.142;2023-05-18T08:18:12;100825.38;;;38.45;18.84
66560;BME280;53413;49.878;8.142;2023-05-18T08:20:37;100834.25;;;38.41;19.31
66560;BME280;53413;49.878;8.142;2023-05-18T08:23:02;100836.88;;;37.58;19.32
66560;BME280;53413;49.878;8.142;2023-05-18T08:25:28;100829.06;;;37.62;19.64
66560;BME280;53413;49.878;8.142;2023-05-18T08:27:53;100831.44;;;36.45;20.27
66560;BME280;53413;49.878;8.142;2023-05-18T08:30:18;100829.94;;;36.23;20.06
66560;BME280;53413;49.878;8.142;2023-05-18T08:32:46;100822.38;;;36.72;19.92
66560;BME280;53413;49.878;8.142;2023-05-18T08:35:12;100821.13;;;36.41;19.82
66560;BME280;53413;49.878;8.142;2023-05-18T08:37:37;100815.66;;;36.27;20.02
66560;BME280;53413;49.878;8.142;2023-05-18T08:40:04;100812.59;;;37.23;20.08
66560;BME280;53413;49.878;8.142;2023-05-18T08:45:10;100809.25;;;38.30;18.78
66560;BME280;53413;49.878;8.142;2023-05-18T08:47:38;100812.25;;;38.22;19.33
66560;BME280;53413;49.878;8.142;2023-05-18T08:50:04;100809.28;;;37.98;19.59
66560;BME280;53413;49.878;8.142;2023-05-18T08:52:35;100808.50;;;37.91;19.55
66560;BME280;53413;49.878;8.142;2023-05-18T08:55:04;100798.75;;;38.27;19.74
66560;BME280;53413;49.878;8.142;2023-05-18T08:57:33;100799.09;;;38.38;19.37
66560;BME280;53413;49.878;8.142;2023-05-18T09:00:00;100803.03;;;37.91;19.31
66560;BME280;53413;49.878;8.142;2023-05-18T09:02:26;100804.19;;;38.02;19.48
66560;BME280;53413;49.878;8.142;2023-05-18T09:04:52;100802.84;;;38.18;19.54
66560;BME280;53413;49.878;8.142;2023-05-18T09:07:21;100800.78;;;37.42;18.98
66560;BME280;53413;49.878;8.142;2023-05-18T09:09:47;100801.41;;;37.77;19.64
66560;BME280;53413;49.878;8.142;2023-05-18T09:12:13;100795.00;;;38.91;18.61
66560;BME280;53413;49.878;8.142;2023-05-18T09:14:41;100809.38;;;39.23;18.24
66560;BME280;53413;49.878;8.142;2023-05-18T09:17:08;100795.38;;;38.94;19.21
66560;BME280;53413;49.878;8.142;2023-05-18T09:19:33;100789.88;;;38.76;18.63
66560;BME280;53413;49.878;8.142;2023-05-18T09:21:59;100788.44;;;37.65;19.99
66560;BME280;53413;49.878;8.142;2023-05-18T09:24:25;100797.28;;;37.67;18.93
66560;BME280;53413;49.878;8.142;2023-05-18T09:26:51;100790.72;;;37.23;19.10
66560;BME280;53413;49.878;8.142;2023-05-18T09:29:18;100801.31;;;36.99;19.87
66560;BME280;53413;49.878;8.142;2023-05-18T09:31:44;100795.84;;;37.06;19.33
66560;BME280;53413;49.878;8.142;2023-05-18T09:34:13;100790.34;;;37.12;20.17
66560;BME280;53413;49.878;8.142;2023-05-18T09:36:39;100798.69;;;36.59;19.89
66560;BME280;53413;49.878;8.142;2023-05-18T09:39:09;100801.19;;;35.38;20.84
66560;BME280;53413;49.878;8.142;2023-05-18T09:41:38;100791.66;;;35.69;20.32
66560;BME280;53413;49.878;8.142;2023-05-18T09:44:04;100788.78;;;36.31;20.03
66560;BME280;53413;49.878;8.142;2023-05-18T09:46:39;100791.56;;;36.44;19.80
66560;BME280;53413;49.878;8.142;2023-05-18T09:49:05;100790.06;;;36.01;20.12
66560;BME280;53413;49.878;8.142;2023-05-18T09:51:35;100787.47;;;35.80;19.64
66560;BME280;53413;49.878;8.142;2023-05-18T09:54:00;100782.97;;;34.96;20.63
66560;BME280;53413;49.878;8.142;2023-05-18T09:56:29;100782.09;;;34.32;21.64
66560;BME280;53413;49.878;8.142;2023-05-18T09:58:56;100770.25;;;35.04;21.59
66560;BME280;53413;49.878;8.142;2023-05-18T10:01:22;100776.66;;;34.32;20.59
66560;BME280;53413;49.878;8.142;2023-05-18T10:03:47;100774.38;;;33.71;20.59
66560;BME280;53413;49.878;8.142;2023-05-18T10:06:14;100766.28;;;33.56;21.29
66560;BME280;53413;49.878;8.142;2023-05-18T10:08:44;100774.41;;;33.34;21.78
66560;BME280;53413;49.878;8.142;2023-05-18T10:11:10;100769.94;;;32.05;23.23
66560;BME280;53413;49.878;8.142;2023-05-18T10:13:35;100764.22;;;30.97;23.93
66560;BME280;53413;49.878;8.142;2023-05-18T10:16:02;100773.03;;;28.63;25.57
66560;BME280;53413;49.878;8.142;2023-05-18T10:18:30;100770.50;;;27.25;27.60
66560;BME280;53413;49.878;8.142;2023-05-18T10:21:00;100770.91;;;26.15;28.89
66560;BME280;53413;49.878;8.142;2023-05-18T10:23:28;100768.97;;;25.57;30.57
66560;BME280;53413;49.878;8.142;2023-05-18T10:25:54;100780.56;;;25.16;31.01
66560;BME280;53413;49.878;8.142;2023-05-18T10:28:21;100771.72;;;24.52;31.65
66560;BME280;53413;49.878;8.142;2023-05-18T10:30:52;100782.56;;;23.42;33.00
66560;BME280;53413;49.878;8.142;2023-05-18T10:33:21;100775.03;;;23.24;33.25
66560;BME280;53413;49.878;8.142;2023-05-18T10:35:47;100767.72;;;23.15;33.28
66560;BME280;53413;49.878;8.142;2023-05-18T10:38:20;100765.53;;;22.86;33.93
66560;BME280;53413;49.878;8.142;2023-05-18T10:40:48;100781.63;;;22.26;35.16
66560;BME280;53413;49.878;8.142;2023-05-18T10:43:15;100771.69;;;22.28;34.92
66560;BME280;53413;49.878;8.142;2023-05-18T10:45:45;100769.53;;;22.80;34.43
66560;BME280;53413;49.878;8.142;2023-05-18T10:48:11;100771.47;;;22.31;33.34
66560;BME280;53413;49.878;8.142;2023-05-18T10:50:39;100765.63;;;22.37;32.97
66560;BME280;53413;49.878;8.142;2023-05-18T10:53:05;100775.50;;;22.95;34.43
66560;BME280;53413;49.878;8.142;2023-05-18T10:55:30;100767.22;;;22.87;33.78
66560;BME280;53413;49.878;8.142;2023-05-18T10:58:01;100765.00;;;22.58;34.79
66560;BME280;53413;49.878;8.142;2023-05-18T11:00:29;100773.78;;;22.11;34.99
66560;BME280;53413;49.878;8.142;2023-05-18T11:03:12;100753.63;;;21.59;35.80
66560;BME280;53413;49.878;8.142;2023-05-18T11:05:39;100759.59;;;21.49;36.11
66560;BME280;53413;49.878;8.142;2023-05-18T11:08:05;100754.09;;;22.01;35.68
66560;BME280;53413;49.878;8.142;2023-05-18T11:10:33;100757.47;;;21.92;35.41
66560;BME280;53413;49.878;8.142;2023-05-18T11:13:02;100757.06;;;21.85;35.25
66560;BME280;53413;49.878;8.142;2023-05-18T11:18:18;100741.81;;;22.23;34.70
66560;BME280;53413;49.878;8.142;2023-05-18T11:20:47;100734.56;;;22.36;35.26
66560;BME280;53413;49.878;8.142;2023-05-18T11:23:13;100740.19;;;21.60;36.18
66560;BME280;53413;49.878;8.142;2023-05-18T11:25:47;100747.13;;;21.13;36.18
66560;BME280;53413;49.878;8.142;2023-05-18T11:28:13;100748.84;;;20.75;37.22
66560;BME280;53413;49.878;8.142;2023-05-18T11:36:09;100734.66;;;19.95;38.44
66560;BME280;53413;49.878;8.142;2023-05-18T11:39:05;100739.56;;;20.02;37.43
66560;BME280;53413;49.878;8.142;2023-05-18T11:41:37;100731.34;;;19.77;39.45
66560;BME280;53413;49.878;8.142;2023-05-18T11:47:02;100732.59;;;20.26;39.03
66560;BME280;53413;49.878;8.142;2023-05-18T11:49:45;100726.97;;;21.09;37.38
66560;BME280;53413;49.878;8.142;2023-05-18T11:52:23;100723.38;;;21.71;37.12
66560;BME280;53413;49.878;8.142;2023-05-18T11:54:50;100717.97;;;22.08;36.73
66560;BME280;53413;49.878;8.142;2023-05-18T11:57:19;100721.69;;;21.94;35.52
66560;BME280;53413;49.878;8.142;2023-05-18T12:02:12;100723.97;;;21.63;36.32
66560;BME280;53413;49.878;8.142;2023-05-18T12:04:44;100731.53;;;20.42;38.05
66560;BME280;53413;49.878;8.142;2023-05-18T12:07:11;100729.75;;;19.89;38.70
66560;BME280;53413;49.878;8.142;2023-05-18T12:09:39;100729.00;;;19.73;39.02
66560;BME280;53413;49.878;8.142;2023-05-18T12:12:06;100723.88;;;19.69;40.19
66560;BME280;53413;49.878;8.142;2023-05-18T12:14:33;100722.94;;;19.98;38.38
66560;BME280;53413;49.878;8.142;2023-05-18T12:17:00;100718.13;;;20.69;38.69
66560;BME280;53413;49.878;8.142;2023-05-18T12:19:25;100707.41;;;21.34;37.75
66560;BME280;53413;49.878;8.142;2023-05-18T12:21:52;100697.81;;;21.68;37.32
66560;BME280;53413;49.878;8.142;2023-05-18T12:24:17;100699.91;;;21.76;36.60
66560;BME280;53413;49.878;8.142;2023-05-18T12:26:42;100712.47;;;21.87;36.36
66560;BME280;53413;49.878;8.142;2023-05-18T12:29:10;100699.19;;;22.10;36.29
66560;BME280;53413;49.878;8.142;2023-05-18T12:31:39;100699.47;;;21.82;36.73
66560;BME280;53413;49.878;8.142;2023-05-18T12:34:08;100699.03;;;21.64;36.89
66560;BME280;53413;49.878;8.142;2023-05-18T12:36:39;100710.06;;;20.71;38.11
66560;BME280;53413;49.878;8.142;2023-05-18T12:39:05;100713.59;;;20.05;40.13
66560;BME280;53413;49.878;8.142;2023-05-18T12:41:31;100715.38;;;19.64;39.93
66560;BME280;53413;49.878;8.142;2023-05-18T12:43:56;100702.50;;;19.44;39.56
66560;BME280;53413;49.878;8.142;2023-05-18T12:46:22;100702.56;;;19.57;39.57
66560;BME280;53413;49.878;8.142;2023-05-18T12:48:58;100698.50;;;19.51;39.73
66560;BME280;53413;49.878;8.142;2023-05-18T12:51:31;100700.38;;;19.91;39.75
66560;BME280;53413;49.878;8.142;2023-05-18T12:53:57;100695.88;;;19.91;38.95
66560;BME280;53413;49.878;8.142;2023-05-18T12:56:22;100692.69;;;19.86;38.99
66560;BME280;53413;49.878;8.142;2023-05-18T12:58:57;100689.75;;;20.04;38.83
66560;BME280;53413;49.878;8.142;2023-05-18T13:01:23;100683.72;;;20.14;39.30
66560;BME280;53413;49.878;8.142;2023-05-18T13:03:56;100687.38;;;20.26;40.14
66560;BME280;53413;49.878;8.142;2023-05-18T13:06:25;100684.78;;;20.12;38.77
66560;BME280;53413;49.878;8.142;2023-05-18T13:08:54;100680.63;;;20.21;38.75